sensor_id;sensor_type;location;lat;lon;timestamp;P1;durP1;ratioP1;P2;durP2;ratioP2
6348;SDS011;3207;42.648;23.406;2023-06-19T00:01:17;10.38;;;9.30;;
6348;SDS011;3207;42.648;23.406;2023-06-19T00:03:44;9.80;;;8.80;;
6348;SDS011;3207;42.648;23.406;2023-06-19T00:06:11;11.27;;;8.95;;
6348;SDS011;3207;42.648;23.406;2023-06-19T00:08:38;10.68;;;9.57;;
6348;SDS011;3207;42.648;23.406;2023-06-19T00:11:07;9.05;;;8.15;;
6348;SDS011;3207;42.648;23.406;2023-06-19T00:13:37;10.20;;;8.52;;
6348;SDS011;3207;42.648;23.406;2023-06-19T00:16:04;9.63;;;8.70;;
6348;SDS011;3207;42.648;23.406;2023-06-19T00:18:31;9.13;;;8.07;;
6348;SDS011;3207;42.648;23.406;2023-06-19T00:21:05;9.20;;;8.30;;
6348;SDS011;3207;42.648;23.406;2023-06-19T00:23:32;9.85;;;7.82;;
6348;SDS011;3207;42.648;23.406;2023-06-19T00:25:59;8.15;;;7.07;;
6348;SDS011;3207;42.648;23.406;2023-06-19T00:28:28;11.00;;;7.72;;
6348;SDS011;3207;42.648;23.406;2023-06-19T00:30:55;8.60;;;7.50;;
6348;SDS011;3207;42.648;23.406;2023-06-19T00:33:22;13.45;;;8.48;;
6348;SDS011;3207;42.648;23.406;2023-06-19T00:35:49;11.38;;;8.25;;
6348;SDS011;3207;42.648;23.406;2023-06-19T00:38:16;8.70;;;7.80;;
6348;SDS011;3207;42.648;23.406;2023-06-19T00:40:43;8.65;;;7.78;;
6348;SDS011;3207;42.648;23.406;2023-06-19T00:43:10;9.52;;;8.57;;
6348;SDS011;3207;42.648;23.406;2023-06-19T00:45:38;10.40;;;8.48;;
6348;SDS011;3207;42.648;23.406;2023-06-19T00:48:05;8.90;;;8.00;;
6348;SDS011;3207;42.648;23.406;2023-06-19T00:50:32;12.07;;;8.07;;
6348;SDS011;3207;42.648;23.406;2023-06-19T00:52:59;9.60;;;7.47;;
6348;SDS011;3207;42.648;23.406;2023-06-19T00:55:29;9.38;;;7.78;;
6348;SDS011;3207;42.648;23.406;2023-06-19T00:57:58;8.75;;;7.95;;
6348;SDS011;3207;42.648;23.406;2023-06-19T01:00:25;9.90;;;7.43;;
6348;SDS011;3207;42.648;23.406;2023-06-19T01:02:53;7.55;;;6.85;;
6348;SDS011;3207;42.648;23.406;2023-06-19T01:05:20;8.13;;;7.43;;
6348;SDS011;3207;42.648;23.406;2023-06-19T01:07:47;8.20;;;7.43;;
6348;SDS011;3207;42.648;23.406;2023-06-19T01:10:21;16.08;;;7.47;;
6348;SDS011;3207;42.648;23.406;2023-06-19T01:12:52;8.35;;;7.00;;
6348;SDS011;3207;42.648;23.406;2023-06-19T01:15:23;8.48;;;6.55;;
6348;SDS011;3207;42.648;23.406;2023-06-19T01:17:51;7.68;;;6.72;;
6348;SDS011;3207;42.648;23.406;2023-06-19T01:20:20;7.53;;;6.82;;
6348;SDS011;3207;42.648;23.406;2023-06-19T01:22:48;8.88;;;7.97;;
6348;SDS011;3207;42.648;23.406;2023-06-19T01:25:15;7.47;;;6.75;;
6348;SDS011;3207;42.648;23.406;2023-06-19T01:27:41;7.75;;;6.95;;
6348;SDS011;3207;42.648;23.406;2023-06-19T01:30:09;6.57;;;5.97;;
6348;SDS011;3207;42.648;23.406;2023-06-19T01:32:40;7.78;;;7.07;;
6348;SDS011;3207;42.648;23.406;2023-06-19T01:35:14;7.47;;;6.30;;
6348;SDS011;3207;42.648;23.406;2023-06-19T01:37:43;6.78;;;6.13;;
6348;SDS011;3207;42.648;23.406;2023-06-19T01:40:14;6.78;;;6.07;;
6348;SDS011;3207;42.648;23.406;2023-06-19T01:42:45;6.88;;;6.28;;
6348;SDS011;3207;42.648;23.406;2023-06-19T01:45:13;7.82;;;7.07;;
6348;SDS011;3207;42.648;23.406;2023-06-19T01:47:40;8.70;;;6.05;;
6348;SDS011;3207;42.648;23.406;2023-06-19T01:50:07;6.25;;;5.68;;
6348;SDS011;3207;42.648;23.406;2023-06-19T01:52:35;7.32;;;6.63;;
6348;SDS011;3207;42.648;23.406;2023-06-19T01:55:02;7.32;;;6.57;;
6348;SDS011;3207;42.648;23.406;2023-06-19T01:57:30;7.55;;;6.75;;
6348;SDS011;3207;42.648;23.406;2023-06-19T01:59:58;8.23;;;6.40;;
6348;SDS011;3207;42.648;23.406;2023-06-19T02:02:25;6.50;;;5.88;;
6348;SDS011;3207;42.648;23.406;2023-06-19T02:04:51;7.55;;;6.43;;
6348;SDS011;3207;42.648;23.406;2023-06-19T02:07:18;7.13;;;6.32;;
6348;SDS011;3207;42.648;23.406;2023-06-19T02:09:45;7.22;;;6.57;;
6348;SDS011;3207;42.648;23.406;2023-06-19T02:12:12;10.45;;;6.50;;
6348;SDS011;3207;42.648;23.406;2023-06-19T02:14:40;9.55;;;6.70;;
6348;SDS011;3207;42.648;23.406;2023-06-19T02:17:07;6.65;;;5.97;;
6348;SDS011;3207;42.648;23.406;2023-06-19T02:19:33;7.03;;;6.35;;
6348;SDS011;3207;42.648;23.406;2023-06-19T02:22:00;7.28;;;6.57;;
6348;SDS011;3207;42.648;23.406;2023-06-19T02:24:27;6.32;;;5.72;;
6348;SDS011;3207;42.648;23.406;2023-06-19T02:26:54;7.95;;;6.22;;
6348;SDS011;3207;42.648;23.406;2023-06-19T02:29:20;6.90;;;6.28;;
6348;SDS011;3207;42.648;23.406;2023-06-19T02:31:49;7.32;;;6.63;;
6348;SDS011;3207;42.648;23.406;2023-06-19T02:34:16;9.70;;;5.95;;
6348;SDS011;3207;42.648;23.406;2023-06-19T02:36:43;7.13;;;6.53;;
6348;SDS011;3207;42.648;23.406;2023-06-19T02:39:12;6.25;;;5.65;;
6348;SDS011;3207;42.648;23.406;2023-06-19T02:41:39;6.45;;;5.88;;
6348;SDS011;3207;42.648;23.406;2023-06-19T02:44:08;6.80;;;6.10;;
6348;SDS011;3207;42.648;23.406;2023-06-19T02:46:35;8.50;;;6.43;;
6348;SDS011;3207;42.648;23.406;2023-06-19T02:49:02;8.38;;;6.38;;
6348;SDS011;3207;42.648;23.406;2023-06-19T02:51:29;8.00;;;6.03;;
6348;SDS011;3207;42.648;23.406;2023-06-19T02:53:56;7.78;;;7.05;;
6348;SDS011;3207;42.648;23.406;2023-06-19T02:56:24;7.15;;;6.43;;
6348;SDS011;3207;42.648;23.406;2023-06-19T02:58:52;7.22;;;6.53;;
6348;SDS011;3207;42.648;23.406;2023-06-19T03:01:19;6.75;;;6.05;;
6348;SDS011;3207;42.648;23.406;2023-06-19T03:03:46;7.18;;;6.47;;
6348;SDS011;3207;42.648;23.406;2023-06-19T03:06:14;10.95;;;6.82;;
6348;SDS011;3207;42.648;23.406;2023-06-19T03:08:43;6.65;;;6.05;;
6348;SDS011;3207;42.648;23.406;2023-06-19T03:11:09;7.07;;;6.38;;
6348;SDS011;3207;42.648;23.406;2023-06-19T03:13:43;6.50;;;5.88;;
6348;SDS011;3207;42.648;23.406;2023-06-19T03:16:10;7.90;;;6.63;;
6348;SDS011;3207;42.648;23.406;2023-06-19T03:18:37;6.65;;;5.97;;
6348;SDS011;3207;42.648;23.406;2023-06-19T03:21:04;8.13;;;6.90;;
6348;SDS011;3207;42.648;23.406;2023-06-19T03:23:32;6.60;;;6.00;;
6348;SDS011;3207;42.648;23.406;2023-06-19T03:25:59;10.30;;;7.72;;
6348;SDS011;3207;42.648;23.406;2023-06-19T03:28:26;6.60;;;6.05;;
6348;SDS011;3207;42.648;23.406;2023-06-19T03:30:53;7.30;;;5.47;;
6348;SDS011;3207;42.648;23.406;2023-06-19T03:33:19;8.45;;;6.28;;
6348;SDS011;3207;42.648;23.406;2023-06-19T03:35:46;12.15;;;6.70;;
6348;SDS011;3207;42.648;23.406;2023-06-19T03:38:13;9.48;;;6.35;;
6348;SDS011;3207;42.648;23.406;2023-06-19T03:40:41;7.03;;;6.38;;
6348;SDS011;3207;42.648;23.406;2023-06-19T03:43:08;7.10;;;6.40;;
6348;SDS011;3207;42.648;23.406;2023-06-19T03:45:35;10.70;;;6.85;;
6348;SDS011;3207;42.648;23.406;2023-06-19T03:48:02;7.55;;;6.70;;
6348;SDS011;3207;42.648;23.406;2023-06-19T03:50:29;6.30;;;5.70;;
6348;SDS011;3207;42.648;23.406;2023-06-19T03:52:56;7.40;;;6.47;;
6348;SDS011;3207;42.648;23.406;2023-06-19T03:55:23;12.00;;;6.40;;
6348;SDS011;3207;42.648;23.406;2023-06-19T03:57:52;6.82;;;6.13;;
6348;SDS011;3207;42.648;23.406;2023-06-19T04:00:19;7.00;;;6.32;;
6348;SDS011;3207;42.648;23.406;2023-06-19T04:02:45;9.85;;;7.18;;
6348;SDS011;3207;42.648;23.406;2023-06-19T04:05:12;10.52;;;6.68;;
6348;SDS011;3207;42.648;23.406;2023-06-19T04:07:40;9.68;;;7.38;;
6348;SDS011;3207;42.648;23.406;2023-06-19T04:10:07;7.38;;;6.68;;
6348;SDS011;3207;42.648;23.406;2023-06-19T04:12:35;8.90;;;6.35;;
6348;SDS011;3207;42.648;23.406;2023-06-19T04:15:03;6.82;;;6.13;;
6348;SDS011;3207;42.648;23.406;2023-06-19T04:17:31;9.57;;;7.18;;
6348;SDS011;3207;42.648;23.406;2023-06-19T04:19:58;7.57;;;6.88;;
6348;SDS011;3207;42.648;23.406;2023-06-19T04:22:24;7.97;;;7.25;;
6348;SDS011;3207;42.648;23.406;2023-06-19T04:24:51;8.05;;;7.25;;
6348;SDS011;3207;42.648;23.406;2023-06-19T04:27:18;10.13;;;7.15;;
6348;SDS011;3207;42.648;23.406;2023-06-19T04:29:45;10.45;;;8.13;;
6348;SDS011;3207;42.648;23.406;2023-06-19T04:32:13;9.05;;;7.90;;
6348;SDS011;3207;42.648;23.406;2023-06-19T04:34:40;8.60;;;7.80;;
6348;SDS011;3207;42.648;23.406;2023-06-19T04:37:11;15.93;;;8.40;;
6348;SDS011;3207;42.648;23.406;2023-06-19T04:39:38;10.02;;;7.50;;
6348;SDS011;3207;42.648;23.406;2023-06-19T04:42:05;10.65;;;7.82;;
6348;SDS011;3207;42.648;23.406;2023-06-19T04:44:32;11.23;;;8.50;;
6348;SDS011;3207;42.648;23.406;2023-06-19T04:46:59;9.05;;;7.85;;
6348;SDS011;3207;42.648;23.406;2023-06-19T04:49:29;8.90;;;8.05;;
6348;SDS011;3207;42.648;23.406;2023-06-19T04:51:56;9.65;;;7.82;;
6348;SDS011;3207;42.648;23.406;2023-06-19T04:54:24;10.43;;;8.57;;
6348;SDS011;3207;42.648;23.406;2023-06-19T04:56:51;11.93;;;8.82;;
6348;SDS011;3207;42.648;23.406;2023-06-19T04:59:18;10.52;;;7.22;;
6348;SDS011;3207;42.648;23.406;2023-06-19T05:01:45;9.35;;;8.07;;
6348;SDS011;3207;42.648;23.406;2023-06-19T05:04:12;11.55;;;9.07;;
6348;SDS011;3207;42.648;23.406;2023-06-19T05:06:40;9.23;;;8.38;;
6348;SDS011;3207;42.648;23.406;2023-06-19T05:09:08;11.50;;;8.75;;
6348;SDS011;3207;42.648;23.406;2023-06-19T05:11:34;13.98;;;8.80;;
6348;SDS011;3207;42.648;23.406;2023-06-19T05:14:01;10.65;;;9.27;;
6348;SDS011;3207;42.648;23.406;2023-06-19T05:16:28;10.10;;;8.70;;
6348;SDS011;3207;42.648;23.406;2023-06-19T05:18:55;12.27;;;8.93;;
6348;SDS011;3207;42.648;23.406;2023-06-19T05:21:21;11.15;;;8.20;;
6348;SDS011;3207;42.648;23.406;2023-06-19T05:23:57;11.40;;;6.90;;
6348;SDS011;3207;42.648;23.406;2023-06-19T05:26:24;10.70;;;7.38;;
6348;SDS011;3207;42.648;23.406;2023-06-19T05:28:51;7.80;;;6.93;;
6348;SDS011;3207;42.648;23.406;2023-06-19T05:31:18;7.95;;;6.53;;
6348;SDS011;3207;42.648;23.406;2023-06-19T05:33:45;8.07;;;7.28;;
6348;SDS011;3207;42.648;23.406;2023-06-19T05:36:11;7.32;;;6.57;;
6348;SDS011;3207;42.648;23.406;2023-06-19T05:38:38;8.10;;;6.95;;
6348;SDS011;3207;42.648;23.406;2023-06-19T05:41:06;7.22;;;6.53;;
6348;SDS011;3207;42.648;23.406;2023-06-19T05:43:33;7.18;;;6.50;;
6348;SDS011;3207;42.648;23.406;2023-06-19T05:46:00;8.68;;;7.78;;
6348;SDS011;3207;42.648;23.406;2023-06-19T05:48:27;9.57;;;6.13;;
6348;SDS011;3207;42.648;23.406;2023-06-19T05:50:54;6.68;;;5.95;;
6348;SDS011;3207;42.648;23.406;2023-06-19T05:53:21;6.68;;;5.97;;
6348;SDS011;3207;42.648;23.406;2023-06-19T05:55:48;6.78;;;6.18;;
6348;SDS011;3207;42.648;23.406;2023-06-19T05:58:16;7.40;;;6.70;;
6348;SDS011;3207;42.648;23.406;2023-06-19T06:00:46;8.00;;;7.30;;
6348;SDS011;3207;42.648;23.406;2023-06-19T06:03:13;11.43;;;7.13;;
6348;SDS011;3207;42.648;23.406;2023-06-19T06:05:39;11.10;;;6.63;;
6348;SDS011;3207;42.648;23.406;2023-06-19T06:08:07;17.92;;;6.90;;
6348;SDS011;3207;42.648;23.406;2023-06-19T06:10:33;8.10;;;7.22;;
6348;SDS011;3207;42.648;23.406;2023-06-19T06:13:00;11.02;;;6.88;;
6348;SDS011;3207;42.648;23.406;2023-06-19T06:15:29;11.70;;;6.18;;
6348;SDS011;3207;42.648;23.406;2023-06-19T06:17:55;7.70;;;6.90;;
6348;SDS011;3207;42.648;23.406;2023-06-19T06:20:22;7.15;;;6.05;;
6348;SDS011;3207;42.648;23.406;2023-06-19T06:22:49;8.00;;;6.68;;
6348;SDS011;3207;42.648;23.406;2023-06-19T06:25:16;8.85;;;6.38;;
6348;SDS011;3207;42.648;23.406;2023-06-19T06:27:43;8.65;;;5.88;;
6348;SDS011;3207;42.648;23.406;2023-06-19T06:30:10;8.02;;;6.38;;
6348;SDS011;3207;42.648;23.406;2023-06-19T06:32:39;10.30;;;6.70;;
6348;SDS011;3207;42.648;23.406;2023-06-19T06:35:07;7.85;;;6.47;;
6348;SDS011;3207;42.648;23.406;2023-06-19T06:37:33;9.02;;;6.63;;
6348;SDS011;3207;42.648;23.406;2023-06-19T06:40:00;9.05;;;6.53;;
6348;SDS011;3207;42.648;23.406;2023-06-19T06:42:29;7.68;;;6.85;;
6348;SDS011;3207;42.648;23.406;2023-06-19T06:44:56;11.35;;;6.50;;
6348;SDS011;3207;42.648;23.406;2023-06-19T06:47:22;8.50;;;7.18;;
6348;SDS011;3207;42.648;23.406;2023-06-19T06:49:50;9.15;;;6.32;;
6348;SDS011;3207;42.648;23.406;2023-06-19T06:52:17;8.45;;;6.57;;
6348;SDS011;3207;42.648;23.406;2023-06-19T06:54:44;8.57;;;7.10;;
6348;SDS011;3207;42.648;23.406;2023-06-19T06:57:11;8.38;;;6.47;;
6348;SDS011;3207;42.648;23.406;2023-06-19T06:59:38;9.20;;;6.28;;
6348;SDS011;3207;42.648;23.406;2023-06-19T07:02:05;7.25;;;5.75;;
6348;SDS011;3207;42.648;23.406;2023-06-19T07:04:32;7.00;;;6.32;;
6348;SDS011;3207;42.648;23.406;2023-06-19T07:07:00;12.85;;;6.70;;
6348;SDS011;3207;42.648;23.406;2023-06-19T07:09:28;12.00;;;6.63;;
6348;SDS011;3207;42.648;23.406;2023-06-19T07:11:55;8.48;;;6.10;;
6348;SDS011;3207;42.648;23.406;2023-06-19T07:14:22;9.85;;;5.90;;
6348;SDS011;3207;42.648;23.406;2023-06-19T07:16:49;9.35;;;5.85;;
6348;SDS011;3207;42.648;23.406;2023-06-19T07:19:16;7.13;;;5.72;;
6348;SDS011;3207;42.648;23.406;2023-06-19T07:21:43;7.55;;;6.32;;
6348;SDS011;3207;42.648;23.406;2023-06-19T07:24:11;8.82;;;7.35;;
6348;SDS011;3207;42.648;23.406;2023-06-19T07:26:38;7.68;;;6.30;;
6348;SDS011;3207;42.648;23.406;2023-06-19T07:29:05;7.10;;;6.40;;
6348;SDS011;3207;42.648;23.406;2023-06-19T07:31:32;7.95;;;6.22;;
6348;SDS011;3207;42.648;23.406;2023-06-19T07:33:59;6.40;;;5.90;;
6348;SDS011;3207;42.648;23.406;2023-06-19T07:36:25;7.40;;;5.90;;
6348;SDS011;3207;42.648;23.406;2023-06-19T07:38:52;8.55;;;6.30;;
6348;SDS011;3207;42.648;23.406;2023-06-19T07:41:20;6.75;;;5.93;;
6348;SDS011;3207;42.648;23.406;2023-06-19T07:43:47;7.05;;;6.28;;
6348;SDS011;3207;42.648;23.406;2023-06-19T07:46:14;10.43;;;5.85;;
6348;SDS011;3207;42.648;23.406;2023-06-19T07:48:42;8.93;;;5.53;;
6348;SDS011;3207;42.648;23.406;2023-06-19T07:51:08;7.45;;;6.13;;
6348;SDS011;3207;42.648;23.406;2023-06-19T07:53:35;6.50;;;5.60;;
6348;SDS011;3207;42.648;23.406;2023-06-19T07:56:05;8.02;;;6.28;;
6348;SDS011;3207;42.648;23.406;2023-06-19T07:58:34;6.47;;;5.80;;
6348;SDS011;3207;42.648;23.406;2023-06-19T08:01:01;9.98;;;6.45;;
6348;SDS011;3207;42.648;23.406;2023-06-19T08:03:28;8.55;;;6.68;;
6348;SDS011;3207;42.648;23.406;2023-06-19T08:05:55;9.60;;;6.22;;
6348;SDS011;3207;42.648;23.406;2023-06-19T08:08:22;7.57;;;6.82;;
6348;SDS011;3207;42.648;23.406;2023-06-19T08:10:49;7.95;;;6.80;;
6348;SDS011;3207;42.648;23.406;2023-06-19T08:13:16;7.25;;;6.55;;
6348;SDS011;3207;42.648;23.406;2023-06-19T08:15:44;7.80;;;6.78;;
6348;SDS011;3207;42.648;23.406;2023-06-19T08:18:11;6.55;;;5.95;;
6348;SDS011;3207;42.648;23.406;2023-06-19T08:20:38;7.10;;;6.30;;
6348;SDS011;3207;42.648;23.406;2023-06-19T08:23:05;9.30;;;6.05;;
6348;SDS011;3207;42.648;23.406;2023-06-19T08:25:31;7.25;;;6.22;;
6348;SDS011;3207;42.648;23.406;2023-06-19T08:28:01;10.80;;;6.20;;
6348;SDS011;3207;42.648;23.406;2023-06-19T08:30:28;6.93;;;6.32;;
6348;SDS011;3207;42.648;23.406;2023-06-19T08:32:56;8.38;;;6.07;;
6348;SDS011;3207;42.648;23.406;2023-06-19T08:35:23;6.07;;;5.57;;
6348;SDS011;3207;42.648;23.406;2023-06-19T08:37:50;7.13;;;5.82;;
6348;SDS011;3207;42.648;23.406;2023-06-19T08:40:17;7.05;;;6.35;;
6348;SDS011;3207;42.648;23.406;2023-06-19T08:42:45;7.88;;;6.15;;
6348;SDS011;3207;42.648;23.406;2023-06-19T08:45:12;7.47;;;6.55;;
6348;SDS011;3207;42.648;23.406;2023-06-19T08:47:39;9.98;;;6.80;;
6348;SDS011;3207;42.648;23.406;2023-06-19T08:50:08;6.43;;;5.93;;
6348;SDS011;3207;42.648;23.406;2023-06-19T08:52:35;7.32;;;6.60;;
6348;SDS011;3207;42.648;23.406;2023-06-19T08:55:01;7.00;;;6.28;;
6348;SDS011;3207;42.648;23.406;2023-06-19T08:57:35;5.55;;;5.05;;
6348;SDS011;3207;42.648;23.406;2023-06-19T09:00:04;6.35;;;5.85;;
6348;SDS011;3207;42.648;23.406;2023-06-19T09:02:36;10.40;;;6.50;;
6348;SDS011;3207;42.648;23.406;2023-06-19T09:05:13;6.38;;;5.78;;
6348;SDS011;3207;42.648;23.406;2023-06-19T09:07:41;5.95;;;5.50;;
6348;SDS011;3207;42.648;23.406;2023-06-19T09:10:15;6.07;;;5.57;;
6348;SDS011;3207;42.648;23.406;2023-06-19T09:12:43;10.88;;;6.03;;
6348;SDS011;3207;42.648;23.406;2023-06-19T09:15:15;6.38;;;5.78;;
6348;SDS011;3207;42.648;23.406;2023-06-19T09:17:42;6.82;;;6.15;;
6348;SDS011;3207;42.648;23.406;2023-06-19T09:20:09;6.10;;;5.60;;
6348;SDS011;3207;42.648;23.406;2023-06-19T09:22:38;5.85;;;5.22;;
6348;SDS011;3207;42.648;23.406;2023-06-19T09:25:06;7.50;;;5.47;;
6348;SDS011;3207;42.648;23.406;2023-06-19T09:27:35;6.40;;;5.90;;
6348;SDS011;3207;42.648;23.406;2023-06-19T09:30:02;6.53;;;5.95;;
6348;SDS011;3207;42.648;23.406;2023-06-19T09:32:31;6.00;;;5.50;;
6348;SDS011;3207;42.648;23.406;2023-06-19T09:34:58;8.95;;;5.95;;
6348;SDS011;3207;42.648;23.406;2023-06-19T09:37:25;6.95;;;6.28;;
6348;SDS011;3207;42.648;23.406;2023-06-19T09:39:55;6.18;;;5.57;;
6348;SDS011;3207;42.648;23.406;2023-06-19T09:42:24;5.95;;;5.40;;
6348;SDS011;3207;42.648;23.406;2023-06-19T09:44:55;6.68;;;6.18;;
6348;SDS011;3207;42.648;23.406;2023-06-19T09:47:26;12.63;;;6.28;;
6348;SDS011;3207;42.648;23.406;2023-06-19T09:49:57;7.65;;;6.00;;
6348;SDS011;3207;42.648;23.406;2023-06-19T09:52:24;6.38;;;5.80;;
6348;SDS011;3207;42.648;23.406;2023-06-19T09:54:51;14.60;;;6.85;;
6348;SDS011;3207;42.648;23.406;2023-06-19T09:57:20;8.05;;;6.35;;
6348;SDS011;3207;42.648;23.406;2023-06-19T09:59:48;6.43;;;5.82;;
6348;SDS011;3207;42.648;23.406;2023-06-19T10:02:18;6.78;;;6.20;;
6348;SDS011;3207;42.648;23.406;2023-06-19T10:04:48;7.40;;;6.20;;
6348;SDS011;3207;42.648;23.406;2023-06-19T10:07:17;7.68;;;6.43;;
6348;SDS011;3207;42.648;23.406;2023-06-19T10:09:55;6.60;;;5.97;;
6348;SDS011;3207;42.648;23.406;2023-06-19T10:12:33;7.45;;;6.68;;
6348;SDS011;3207;42.648;23.406;2023-06-19T10:15:07;7.80;;;7.10;;
6348;SDS011;3207;42.648;23.406;2023-06-19T10:17:42;7.28;;;6.68;;
6348;SDS011;3207;42.648;23.406;2023-06-19T10:20:18;7.47;;;6.75;;
6348;SDS011;3207;42.648;23.406;2023-06-19T10:22:51;12.02;;;6.93;;
6348;SDS011;3207;42.648;23.406;2023-06-19T10:25:20;7.53;;;6.82;;
6348;SDS011;3207;42.648;23.406;2023-06-19T10:27:49;7.65;;;6.95;;
6348;SDS011;3207;42.648;23.406;2023-06-19T10:30:19;8.95;;;7.25;;
6348;SDS011;3207;42.648;23.406;2023-06-19T10:32:46;8.85;;;6.68;;
6348;SDS011;3207;42.648;23.406;2023-06-19T10:35:14;7.90;;;7.15;;
6348;SDS011;3207;42.648;23.406;2023-06-19T10:37:42;12.45;;;6.80;;
6348;SDS011;3207;42.648;23.406;2023-06-19T10:40:10;7.50;;;6.85;;
6348;SDS011;3207;42.648;23.406;2023-06-19T10:42:38;9.75;;;7.22;;
6348;SDS011;3207;42.648;23.406;2023-06-19T10:45:07;8.18;;;7.43;;
6348;SDS011;3207;42.648;23.406;2023-06-19T10:47:35;8.73;;;7.88;;
6348;SDS011;3207;42.648;23.406;2023-06-19T10:50:05;7.72;;;7.13;;
6348;SDS011;3207;42.648;23.406;2023-06-19T10:52:35;7.65;;;7.00;;
6348;SDS011;3207;42.648;23.406;2023-06-19T10:55:03;9.15;;;7.10;;
6348;SDS011;3207;42.648;23.406;2023-06-19T10:57:30;7.95;;;7.28;;
6348;SDS011;3207;42.648;23.406;2023-06-19T10:59:57;7.72;;;7.13;;
6348;SDS011;3207;42.648;23.406;2023-06-19T11:02:26;7.82;;;7.03;;
6348;SDS011;3207;42.648;23.406;2023-06-19T11:04:53;7.70;;;7.03;;
6348;SDS011;3207;42.648;23.406;2023-06-19T11:07:21;8.07;;;7.32;;
6348;SDS011;3207;42.648;23.406;2023-06-19T11:09:49;8.20;;;7.50;;
6348;SDS011;3207;42.648;23.406;2023-06-19T11:12:18;8.02;;;7.32;;
6348;SDS011;3207;42.648;23.406;2023-06-19T11:14:47;15.15;;;7.05;;
6348;SDS011;3207;42.648;23.406;2023-06-19T11:17:14;9.63;;;7.55;;
6348;SDS011;3207;42.648;23.406;2023-06-19T11:19:42;9.82;;;7.30;;
6348;SDS011;3207;42.648;23.406;2023-06-19T11:22:09;9.00;;;8.13;;
6348;SDS011;3207;42.648;23.406;2023-06-19T11:24:42;7.28;;;6.78;;
6348;SDS011;3207;42.648;23.406;2023-06-19T11:27:18;9.63;;;7.35;;
6348;SDS011;3207;42.648;23.406;2023-06-19T11:29:54;8.50;;;7.65;;
6348;SDS011;3207;42.648;23.406;2023-06-19T11:32:21;7.13;;;6.63;;
6348;SDS011;3207;42.648;23.406;2023-06-19T11:34:51;11.88;;;7.22;;
6348;SDS011;3207;42.648;23.406;2023-06-19T11:37:19;7.70;;;7.00;;
6348;SDS011;3207;42.648;23.406;2023-06-19T11:39:47;11.20;;;7.95;;
6348;SDS011;3207;42.648;23.406;2023-06-19T11:42:16;8.05;;;7.25;;
6348;SDS011;3207;42.648;23.406;2023-06-19T11:44:52;8.07;;;7.38;;
6348;SDS011;3207;42.648;23.406;2023-06-19T11:47:20;8.00;;;7.30;;
6348;SDS011;3207;42.648;23.406;2023-06-19T11:49:47;8.93;;;7.95;;
6348;SDS011;3207;42.648;23.406;2023-06-19T11:52:17;9.63;;;7.57;;
6348;SDS011;3207;42.648;23.406;2023-06-19T11:54:44;7.93;;;7.22;;
6348;SDS011;3207;42.648;23.406;2023-06-19T11:57:11;8.52;;;7.88;;
6348;SDS011;3207;42.648;23.406;2023-06-19T11:59:38;8.63;;;7.93;;
6348;SDS011;3207;42.648;23.406;2023-06-19T12:02:05;9.65;;;7.20;;
6348;SDS011;3207;42.648;23.406;2023-06-19T12:04:32;8.18;;;7.43;;
6348;SDS011;3207;42.648;23.406;2023-06-19T12:06:59;8.70;;;7.90;;
6348;SDS011;3207;42.648;23.406;2023-06-19T12:09:30;12.40;;;7.32;;
6348;SDS011;3207;42.648;23.406;2023-06-19T12:11:58;15.70;;;8.75;;
6348;SDS011;3207;42.648;23.406;2023-06-19T12:14:25;10.35;;;8.18;;
6348;SDS011;3207;42.648;23.406;2023-06-19T12:16:52;8.07;;;7.30;;
6348;SDS011;3207;42.648;23.406;2023-06-19T12:19:19;11.23;;;7.88;;
6348;SDS011;3207;42.648;23.406;2023-06-19T12:21:46;7.78;;;7.18;;
6348;SDS011;3207;42.648;23.406;2023-06-19T12:24:13;7.85;;;7.22;;
6348;SDS011;3207;42.648;23.406;2023-06-19T12:26:41;9.20;;;8.40;;
6348;SDS011;3207;42.648;23.406;2023-06-19T12:29:08;13.70;;;7.80;;
6348;SDS011;3207;42.648;23.406;2023-06-19T12:31:34;8.23;;;7.43;;
6348;SDS011;3207;42.648;23.406;2023-06-19T12:34:02;9.02;;;7.95;;
6348;SDS011;3207;42.648;23.406;2023-06-19T12:36:29;9.10;;;8.25;;
6348;SDS011;3207;42.648;23.406;2023-06-19T12:38:58;8.73;;;8.02;;
6348;SDS011;3207;42.648;23.406;2023-06-19T12:41:25;9.98;;;8.90;;
6348;SDS011;3207;42.648;23.406;2023-06-19T12:43:54;14.15;;;8.13;;
6348;SDS011;3207;42.648;23.406;2023-06-19T12:46:23;9.32;;;8.40;;
6348;SDS011;3207;42.648;23.406;2023-06-19T12:48:50;10.20;;;8.45;;
6348;SDS011;3207;42.648;23.406;2023-06-19T12:51:17;9.70;;;8.65;;
6348;SDS011;3207;42.648;23.406;2023-06-19T12:53:44;9.52;;;8.63;;
6348;SDS011;3207;42.648;23.406;2023-06-19T12:56:11;9.35;;;8.57;;
6348;SDS011;3207;42.648;23.406;2023-06-19T12:58:38;9.55;;;8.75;;
6348;SDS011;3207;42.648;23.406;2023-06-19T13:01:06;9.13;;;8.25;;
6348;SDS011;3207;42.648;23.406;2023-06-19T13:03:33;9.77;;;8.85;;
6348;SDS011;3207;42.648;23.406;2023-06-19T13:05:59;8.82;;;7.97;;
6348;SDS011;3207;42.648;23.406;2023-06-19T13:08:26;9.07;;;8.18;;
6348;SDS011;3207;42.648;23.406;2023-06-19T13:10:53;8.73;;;8.02;;
6348;SDS011;3207;42.648;23.406;2023-06-19T13:13:20;9.20;;;8.40;;
6348;SDS011;3207;42.648;23.406;2023-06-19T13:15:46;8.77;;;7.93;;
6348;SDS011;3207;42.648;23.406;2023-06-19T13:18:15;9.38;;;8.35;;
6348;SDS011;3207;42.648;23.406;2023-06-19T13:20:41;9.48;;;8.43;;
6348;SDS011;3207;42.648;23.406;2023-06-19T13:23:10;8.98;;;8.05;;
6348;SDS011;3207;42.648;23.406;2023-06-19T13:25:36;8.65;;;7.93;;
6348;SDS011;3207;42.648;23.406;2023-06-19T13:28:03;8.90;;;8.20;;
6348;SDS011;3207;42.648;23.406;2023-06-19T13:30:30;15.90;;;8.75;;
6348;SDS011;3207;42.648;23.406;2023-06-19T13:32:57;9.00;;;8.20;;
6348;SDS011;3207;42.648;23.406;2023-06-19T13:35:25;9.13;;;8.20;;
6348;SDS011;3207;42.648;23.406;2023-06-19T13:37:52;8.77;;;8.18;;
6348;SDS011;3207;42.648;23.406;2023-06-19T13:40:19;8.77;;;7.78;;
6348;SDS011;3207;42.648;23.406;2023-06-19T13:42:45;8.73;;;7.93;;
6348;SDS011;3207;42.648;23.406;2023-06-19T13:45:13;9.77;;;8.98;;
6348;SDS011;3207;42.648;23.406;2023-06-19T13:47:39;10.07;;;9.10;;
6348;SDS011;3207;42.648;23.406;2023-06-19T13:50:07;9.80;;;8.70;;
6348;SDS011;3207;42.648;23.406;2023-06-19T13:52:35;9.32;;;8.63;;
6348;SDS011;3207;42.648;23.406;2023-06-19T13:55:02;8.80;;;7.90;;
6348;SDS011;3207;42.648;23.406;2023-06-19T13:57:30;8.95;;;8.25;;
6348;SDS011;3207;42.648;23.406;2023-06-19T13:59:57;9.30;;;8.60;;
6348;SDS011;3207;42.648;23.406;2023-06-19T14:02:24;8.52;;;7.78;;
6348;SDS011;3207;42.648;23.406;2023-06-19T14:04:50;9.38;;;8.57;;
6348;SDS011;3207;42.648;23.406;2023-06-19T14:07:17;8.80;;;8.00;;
6348;SDS011;3207;42.648;23.406;2023-06-19T14:09:48;10.57;;;9.57;;
6348;SDS011;3207;42.648;23.406;2023-06-19T14:12:15;9.30;;;8.43;;
6348;SDS011;3207;42.648;23.406;2023-06-19T14:14:41;10.63;;;8.77;;
6348;SDS011;3207;42.648;23.406;2023-06-19T14:17:08;9.30;;;8.50;;
6348;SDS011;3207;42.648;23.406;2023-06-19T14:19:35;9.50;;;8.57;;
6348;SDS011;3207;42.648;23.406;2023-06-19T14:22:02;9.13;;;8.40;;
6348;SDS011;3207;42.648;23.406;2023-06-19T14:24:29;15.63;;;8.15;;
6348;SDS011;3207;42.648;23.406;2023-06-19T14:26:57;9.32;;;8.60;;
6348;SDS011;3207;42.648;23.406;2023-06-19T14:29:24;10.05;;;9.15;;
6348;SDS011;3207;42.648;23.406;2023-06-19T14:31:50;8.57;;;7.80;;
6348;SDS011;3207;42.648;23.406;2023-06-19T14:34:18;9.35;;;8.50;;
6348;SDS011;3207;42.648;23.406;2023-06-19T14:36:46;8.98;;;8.18;;
6348;SDS011;3207;42.648;23.406;2023-06-19T14:39:13;9.35;;;8.48;;
6348;SDS011;3207;42.648;23.406;2023-06-19T14:41:40;10.38;;;9.25;;
6348;SDS011;3207;42.648;23.406;2023-06-19T14:44:08;8.82;;;7.95;;
6348;SDS011;3207;42.648;23.406;2023-06-19T14:46:35;9.50;;;8.68;;
6348;SDS011;3207;42.648;23.406;2023-06-19T14:49:04;9.55;;;8.65;;
6348;SDS011;3207;42.648;23.406;2023-06-19T14:51:31;9.75;;;8.88;;
6348;SDS011;3207;42.648;23.406;2023-06-19T14:53:59;10.07;;;9.07;;
6348;SDS011;3207;42.648;23.406;2023-06-19T14:56:26;9.77;;;8.82;;
6348;SDS011;3207;42.648;23.406;2023-06-19T14:58:53;9.43;;;8.63;;
6348;SDS011;3207;42.648;23.406;2023-06-19T15:01:21;9.77;;;8.98;;